Terminal Aerodrome Forecast
Issued by NWS Mt. Holly, NJ

Current Version | Previous Version | Text Only | Print | Product List | Glossary On
Versions: 1 2 3 4 5 6 7 8 9 10 11 12 13 14 15 16 17 18 19 20 21 22 23 24 25 26 27
000
FTUS41 KPHI 111120
TAFPHL
TAF
KPHL 111120Z 1112/1218 24004KT P6SM SCT060 BKN100
     FM111400 27010KT P6SM SCT070 SCT250
     FM112200 22005KT P6SM BKN250
     FM120200 14004KT P6SM BKN080
     FM121300 17008KT P6SM OVC070
     FM121500 20009KT P6SM OVC035=

USA.gov is the U.S. government's official web portal to all federal, state and local government web resources and services.